createdAt,value
2023-01-29T00:00:11.864Z,2.27
2023-01-29T00:02:41.232Z,2.25
2023-01-29T00:05:26.093Z,2.25
2023-01-29T00:07:53.330Z,2.30
2023-01-29T00:10:19.717Z,2.30
2023-01-29T00:12:46.094Z,2.23
2023-01-29T00:15:12.802Z,2.22
2023-01-29T00:17:39.197Z,2.17
2023-01-29T00:20:05.894Z,2.20
2023-01-29T00:22:32.268Z,2.21
2023-01-29T00:24:59.176Z,2.19
2023-01-29T00:27:25.571Z,2.22
2023-01-29T00:30:08.793Z,2.15
2023-01-29T00:32:35.929Z,2.15
2023-01-29T00:35:02.410Z,2.09
2023-01-29T00:37:28.814Z,2.11
2023-01-29T00:39:55.271Z,2.02
2023-01-29T00:42:40.425Z,2.03
2023-01-29T00:45:07.260Z,2.03
2023-01-29T00:47:33.923Z,2.05
2023-01-29T00:50:01.465Z,1.99
2023-01-29T00:52:28.832Z,1.92
2023-01-29T00:54:56.770Z,1.92
2023-01-29T00:57:24.170Z,1.83
2023-01-29T00:59:50.734Z,1.84
2023-01-29T01:02:35.856Z,1.84
2023-01-29T01:05:06.046Z,1.78
2023-01-29T01:07:32.431Z,1.79
2023-01-29T01:10:17.897Z,1.75
2023-01-29T01:12:45.259Z,1.71
2023-01-29T01:15:11.745Z,1.71
2023-01-29T01:17:38.238Z,1.75
2023-01-29T01:20:04.958Z,1.72
2023-01-29T01:22:31.978Z,1.71
2023-01-29T01:24:59.170Z,1.68
2023-01-29T01:27:25.654Z,1.68
2023-01-29T01:29:52.299Z,1.69
2023-01-29T01:32:18.846Z,1.65
2023-01-29T01:34:45.346Z,1.60
2023-01-29T01:37:12.964Z,1.56
2023-01-29T01:39:39.465Z,1.53
2023-01-29T01:42:11.485Z,1.53
2023-01-29T01:44:58.720Z,1.52
2023-01-29T01:47:46.294Z,1.47
2023-01-29T01:50:21.949Z,1.43
2023-01-29T01:52:50.953Z,1.42
2023-01-29T01:55:19.452Z,1.39
2023-01-29T01:57:47.722Z,1.37
2023-01-29T02:00:16.474Z,1.41
2023-01-29T02:03:03.135Z,1.33
2023-01-29T02:05:49.678Z,1.35
2023-01-29T02:08:38.035Z,1.31
2023-01-29T02:11:05.929Z,1.31
2023-01-29T02:13:32.317Z,1.30
2023-01-29T02:15:58.686Z,1.23
2023-01-29T02:18:25.072Z,1.18
2023-01-29T02:21:10.179Z,1.13
2023-01-29T02:23:55.068Z,1.13
2023-01-29T02:26:40.056Z,1.06
2023-01-29T02:29:26.913Z,1.05
2023-01-29T02:32:12.552Z,1.01
2023-01-29T02:35:04.625Z,0.97
2023-01-29T02:37:36.719Z,0.94
2023-01-29T02:40:15.122Z,0.96
2023-01-29T02:42:46.907Z,0.93
2023-01-29T02:45:24.801Z,0.94
2023-01-29T02:47:57.029Z,0.95
2023-01-29T02:50:37.248Z,0.86
2023-01-29T02:53:11.546Z,0.77
2023-01-29T02:55:58.065Z,0.78
2023-01-29T02:58:29.408Z,0.78
2023-01-29T03:01:00.209Z,0.78
2023-01-29T03:03:53.067Z,0.80
2023-01-29T03:06:26.194Z,0.79
2023-01-29T03:09:01.616Z,0.79
2023-01-29T03:11:32.578Z,0.75
2023-01-29T03:14:04.348Z,0.80
2023-01-29T03:16:45.409Z,0.78
2023-01-29T03:19:18.805Z,0.76
2023-01-29T03:21:53.732Z,0.76
2023-01-29T03:24:58.500Z,0.73
2023-01-29T03:27:47.101Z,0.73
2023-01-29T03:30:34.945Z,0.69
2023-01-29T03:33:26.509Z,0.69
2023-01-29T03:36:00.951Z,0.69
2023-01-29T03:38:32.081Z,0.69
2023-01-29T03:41:08.582Z,0.66
2023-01-29T03:43:39.734Z,0.63
2023-01-29T03:46:18.943Z,0.61
2023-01-29T03:48:55.936Z,0.62
2023-01-29T03:51:27.382Z,0.60
2023-01-29T03:53:59.473Z,0.62
2023-01-29T03:56:46.496Z,0.61
2023-01-29T03:59:20.819Z,0.54
2023-01-29T04:02:11.225Z,0.51
2023-01-29T04:04:39.073Z,0.53
2023-01-29T04:07:10.750Z,0.53
2023-01-29T04:09:40.982Z,0.48
2023-01-29T04:12:09.235Z,0.42
2023-01-29T04:14:39.326Z,0.40
2023-01-29T04:17:12.341Z,0.40
2023-01-29T04:19:45.666Z,0.41
2023-01-29T04:22:15.925Z,0.39
2023-01-29T04:24:42.689Z,0.36
2023-01-29T04:27:20.807Z,0.34
2023-01-29T04:29:57.414Z,0.34
2023-01-29T04:32:34.202Z,0.40
2023-01-29T04:35:05.204Z,0.36
2023-01-29T04:37:43.932Z,0.32
2023-01-29T04:40:28.948Z,0.25
2023-01-29T04:43:07.842Z,0.25
2023-01-29T04:45:39.053Z,0.20
2023-01-29T04:48:16.428Z,0.21
2023-01-29T04:50:55.180Z,0.25
2023-01-29T04:53:30.839Z,0.20
2023-01-29T04:56:20.660Z,0.20
2023-01-29T04:58:49.767Z,0.22
2023-01-29T05:01:17.456Z,0.14
2023-01-29T05:03:46.733Z,0.15
2023-01-29T05:06:14.040Z,0.07
2023-01-29T05:08:41.041Z,0.12
2023-01-29T05:11:07.792Z,0.13
2023-01-29T05:13:39.230Z,0.13
2023-01-29T05:16:15.171Z,0.13
2023-01-29T05:18:42.100Z,0.14
2023-01-29T05:21:09.240Z,0.13
2023-01-29T05:23:35.661Z,0.13
2023-01-29T05:26:02.085Z,0.13
2023-01-29T05:28:28.530Z,0.12
2023-01-29T05:30:56.563Z,0.11
2023-01-29T05:33:27.264Z,0.11
2023-01-29T05:35:53.809Z,0.05
2023-01-29T05:38:20.585Z,0.08
2023-01-29T05:40:47.528Z,0.02
2023-01-29T05:43:18.056Z,0.06
2023-01-29T05:45:52.011Z,0.00
2023-01-29T05:48:18.401Z,-0.01
2023-01-29T05:50:44.836Z,0.00
2023-01-29T05:53:11.295Z,-0.01
2023-01-29T05:55:37.728Z,0.00
2023-01-29T05:58:05.898Z,-0.03
2023-01-29T06:00:32.421Z,-0.07
2023-01-29T06:02:58.948Z,-0.02
2023-01-29T06:05:25.457Z,-0.03
2023-01-29T06:07:51.844Z,-0.11
2023-01-29T06:10:19.028Z,-0.08
2023-01-29T06:12:45.702Z,-0.05
2023-01-29T06:15:12.871Z,-0.07
2023-01-29T06:17:39.266Z,-0.09
2023-01-29T06:20:05.988Z,-0.09
2023-01-29T06:22:33.058Z,-0.14
2023-01-29T06:24:59.537Z,-0.20
2023-01-29T06:27:25.914Z,-0.18
2023-01-29T06:29:52.323Z,-0.12
2023-01-29T06:32:18.753Z,-0.07
2023-01-29T06:34:45.200Z,-0.05
2023-01-29T06:37:11.559Z,-0.01
2023-01-29T06:39:37.963Z,-0.10
2023-01-29T06:42:04.384Z,-0.16
2023-01-29T06:44:30.751Z,-0.03
2023-01-29T06:46:57.136Z,-0.02
2023-01-29T06:49:23.572Z,0.02
2023-01-29T06:51:49.944Z,0.02
2023-01-29T06:54:16.336Z,0.06
2023-01-29T06:56:42.735Z,0.03
2023-01-29T06:59:09.116Z,0.06
2023-01-29T07:01:40.895Z,0.02
2023-01-29T07:04:07.346Z,0.05
2023-01-29T07:06:34.173Z,0.04
2023-01-29T07:09:00.835Z,0.04
2023-01-29T07:11:27.229Z,0.01
2023-01-29T07:13:53.580Z,0.04
2023-01-29T07:16:19.966Z,0.00
2023-01-29T07:18:46.336Z,0.04
2023-01-29T07:21:12.740Z,0.06
2023-01-29T07:23:39.135Z,0.12
2023-01-29T07:26:06.132Z,0.10
2023-01-29T07:28:35.847Z,0.12
2023-01-29T07:31:02.228Z,0.04
2023-01-29T07:33:28.602Z,0.14
2023-01-29T07:35:54.963Z,0.11
2023-01-29T07:38:21.366Z,0.06
2023-01-29T07:40:48.040Z,0.03
2023-01-29T07:43:14.592Z,0.02
2023-01-29T07:45:41.070Z,0.07
2023-01-29T07:48:09.744Z,0.14
2023-01-29T07:50:36.415Z,0.11
2023-01-29T07:53:02.854Z,0.03
2023-01-29T07:55:29.253Z,0.02
2023-01-29T07:57:59.906Z,0.07
2023-01-29T08:00:26.410Z,0.18
2023-01-29T08:02:52.884Z,0.18
2023-01-29T08:05:19.454Z,0.17
2023-01-29T08:07:49.353Z,0.15
2023-01-29T08:10:24.127Z,0.20
2023-01-29T08:12:54.345Z,0.21
2023-01-29T08:15:20.738Z,0.28
2023-01-29T08:17:57.479Z,0.29
2023-01-29T08:20:24.611Z,0.27
2023-01-29T08:22:58.108Z,0.26
2023-01-29T08:25:24.946Z,0.27
2023-01-29T08:27:51.551Z,0.23
2023-01-29T08:30:18.658Z,0.29
2023-01-29T08:32:45.121Z,0.32
2023-01-29T08:35:11.525Z,0.22
2023-01-29T08:37:37.928Z,0.23
2023-01-29T08:40:04.562Z,0.27
2023-01-29T08:42:30.948Z,0.24
2023-01-29T08:44:57.331Z,0.26
2023-01-29T08:47:23.792Z,0.33
2023-01-29T08:49:50.149Z,0.37
2023-01-29T08:52:16.586Z,0.26
2023-01-29T08:54:42.971Z,0.32
2023-01-29T08:57:09.359Z,0.33
2023-01-29T08:59:35.808Z,0.36
2023-01-29T09:02:02.207Z,0.35
2023-01-29T09:04:28.717Z,0.31
2023-01-29T09:06:55.105Z,0.33
2023-01-29T09:09:21.474Z,0.30
2023-01-29T09:11:47.908Z,0.37
2023-01-29T09:14:14.702Z,0.37
2023-01-29T09:16:41.186Z,0.41
2023-01-29T09:19:08.241Z,0.43
2023-01-29T09:21:34.653Z,0.35
2023-01-29T09:24:01.040Z,0.39
2023-01-29T09:26:27.533Z,0.36
2023-01-29T09:28:53.928Z,0.33
2023-01-29T09:31:20.407Z,0.50
2023-01-29T09:33:46.860Z,0.53
2023-01-29T09:36:13.356Z,0.53
2023-01-29T09:38:39.866Z,0.55
2023-01-29T09:41:13.750Z,0.54
2023-01-29T09:43:46.035Z,0.57
2023-01-29T09:46:22.784Z,0.59
2023-01-29T09:48:52.848Z,0.63
2023-01-29T09:51:29.986Z,0.68
2023-01-29T09:54:14.961Z,0.65
2023-01-29T09:56:42.271Z,0.68
2023-01-29T09:59:11.001Z,0.62
2023-01-29T10:01:37.651Z,0.65
2023-01-29T10:04:22.968Z,0.71
2023-01-29T10:07:08.183Z,0.72
2023-01-29T10:09:46.820Z,0.76
2023-01-29T10:12:16.261Z,0.80
2023-01-29T10:15:01.214Z,0.79
2023-01-29T10:17:45.372Z,0.85
2023-01-29T10:20:14.896Z,0.89
2023-01-29T10:22:42.062Z,0.90
2023-01-29T10:25:13.557Z,0.94
2023-01-29T10:27:41.166Z,0.98
2023-01-29T10:30:09.529Z,0.99
2023-01-29T10:32:36.967Z,1.02
2023-01-29T10:35:18.027Z,1.06
2023-01-29T10:37:44.879Z,1.04
2023-01-29T10:40:21.959Z,1.06
2023-01-29T10:42:52.893Z,1.05
2023-01-29T10:45:41.387Z,1.14
2023-01-29T10:48:07.723Z,1.18
2023-01-29T10:50:42.972Z,1.16
2023-01-29T10:53:18.459Z,1.17
2023-01-29T10:56:10.810Z,1.19
2023-01-29T10:58:52.193Z,1.26
2023-01-29T11:01:18.596Z,1.32
2023-01-29T11:03:45.045Z,1.34
2023-01-29T11:06:25.333Z,1.38
2023-01-29T11:09:00.949Z,1.31
2023-01-29T11:11:50.645Z,1.41
2023-01-29T11:14:21.509Z,1.45
2023-01-29T11:16:48.621Z,1.46
2023-01-29T11:19:15.831Z,1.40
2023-01-29T11:21:59.015Z,1.45
2023-01-29T11:24:26.054Z,1.51
2023-01-29T11:26:54.205Z,1.55
2023-01-29T11:29:35.931Z,1.59
2023-01-29T11:32:04.721Z,1.63
2023-01-29T11:34:31.297Z,1.58
2023-01-29T11:37:05.059Z,1.62
2023-01-29T11:39:32.198Z,1.67
2023-01-29T11:42:00.382Z,1.67
2023-01-29T11:44:31.506Z,1.71
2023-01-29T11:47:07.552Z,1.73
2023-01-29T11:49:34.748Z,1.77
2023-01-29T11:52:03.518Z,1.78
2023-01-29T11:54:32.809Z,1.81
2023-01-29T11:56:59.673Z,1.78
2023-01-29T11:59:33.686Z,1.74
2023-01-29T12:02:23.382Z,1.78
2023-01-29T12:04:50.415Z,1.83
2023-01-29T12:07:17.990Z,1.86
2023-01-29T12:09:53.295Z,1.83
2023-01-29T12:12:25.697Z,1.81
2023-01-29T12:15:02.627Z,1.91
2023-01-29T12:17:30.986Z,1.81
2023-01-29T12:19:59.824Z,1.81
2023-01-29T12:22:46.506Z,1.90
2023-01-29T12:25:19.091Z,1.87
2023-01-29T12:27:48.527Z,1.84
2023-01-29T12:30:18.409Z,1.86
2023-01-29T12:32:50.087Z,1.92
2023-01-29T12:35:25.647Z,1.93
2023-01-29T12:38:12.353Z,1.94
2023-01-29T12:40:47.801Z,1.98
2023-01-29T12:43:18.523Z,1.95
2023-01-29T12:45:48.414Z,1.87
2023-01-29T12:48:19.912Z,1.93
2023-01-29T12:50:47.747Z,1.95
2023-01-29T12:53:14.154Z,2.05
2023-01-29T12:55:43.644Z,2.06
2023-01-29T12:58:16.114Z,2.09
2023-01-29T13:00:48.352Z,2.03
2023-01-29T13:03:24.563Z,2.07
2023-01-29T13:05:59.989Z,2.12
2023-01-29T13:08:31.700Z,2.09
2023-01-29T13:11:00.962Z,2.12
2023-01-29T13:13:36.455Z,2.14
2023-01-29T13:16:04.383Z,2.16
2023-01-29T13:18:40.105Z,2.15
2023-01-29T13:21:08.836Z,2.20
2023-01-29T13:23:37.878Z,2.28
2023-01-29T13:26:05.710Z,2.27
2023-01-29T13:28:32.475Z,2.24
2023-01-29T13:31:17.448Z,2.20
2023-01-29T13:33:51.650Z,2.19
2023-01-29T13:36:20.724Z,2.27
2023-01-29T13:38:54.240Z,2.29
2023-01-29T13:41:20.719Z,2.29
2023-01-29T13:43:50.071Z,2.35
2023-01-29T13:46:21.222Z,2.35
2023-01-29T13:48:50.109Z,2.38
2023-01-29T13:51:27.235Z,2.36
2023-01-29T13:54:00.644Z,2.39
2023-01-29T13:56:41.619Z,2.39
2023-01-29T13:59:20.758Z,2.41
2023-01-29T14:01:47.191Z,2.44
2023-01-29T14:04:19.471Z,2.42
2023-01-29T14:06:47.500Z,2.45
2023-01-29T14:09:32.783Z,2.48
2023-01-29T14:11:59.641Z,2.50
2023-01-29T14:14:44.641Z,2.42
2023-01-29T14:17:11.952Z,2.51
2023-01-29T14:19:38.437Z,2.52
2023-01-29T14:22:05.205Z,2.51
2023-01-29T14:24:31.636Z,2.53
2023-01-29T14:26:58.192Z,2.53
2023-01-29T14:29:38.124Z,2.54
2023-01-29T14:32:13.189Z,2.53
2023-01-29T14:35:00.145Z,2.48
2023-01-29T14:37:32.910Z,2.54
2023-01-29T14:40:07.869Z,2.51
2023-01-29T14:42:36.374Z,2.49
2023-01-29T14:45:24.206Z,2.55
2023-01-29T14:47:50.673Z,2.49
2023-01-29T14:50:29.453Z,2.51
2023-01-29T14:53:01.715Z,2.54
2023-01-29T14:55:39.448Z,2.55
2023-01-29T14:58:06.489Z,2.54
2023-01-29T15:00:44.258Z,2.56
2023-01-29T15:03:19.465Z,2.57
2023-01-29T15:05:46.779Z,2.53
2023-01-29T15:08:13.172Z,2.51
2023-01-29T15:10:40.100Z,2.48
2023-01-29T15:13:09.380Z,2.51
2023-01-29T15:15:54.130Z,2.49
2023-01-29T15:18:20.719Z,2.47
2023-01-29T15:20:47.399Z,2.46
2023-01-29T15:23:30.319Z,2.41
2023-01-29T15:25:58.595Z,2.51
2023-01-29T15:28:25.187Z,2.50
2023-01-29T15:30:55.548Z,2.50
2023-01-29T15:33:22.050Z,2.49
2023-01-29T15:35:51.666Z,2.44
2023-01-29T15:38:25.474Z,2.48
2023-01-29T15:41:21.505Z,2.47
2023-01-29T15:43:51.618Z,2.42
2023-01-29T15:46:24.669Z,2.45
2023-01-29T15:48:51.846Z,2.45
2023-01-29T15:51:20.408Z,2.45
2023-01-29T15:53:51.816Z,2.45
2023-01-29T15:56:19.910Z,2.42
2023-01-29T15:58:51.043Z,2.40
2023-01-29T16:01:17.929Z,2.43
2023-01-29T16:03:45.083Z,2.41
2023-01-29T16:06:11.798Z,2.39
2023-01-29T16:08:39.300Z,2.41
2023-01-29T16:11:07.378Z,2.42
2023-01-29T16:13:35.926Z,2.41
2023-01-29T16:16:04.421Z,2.40
2023-01-29T16:18:39.573Z,2.36
2023-01-29T16:21:16.724Z,2.42
2023-01-29T16:23:49.292Z,2.40
2023-01-29T16:26:17.763Z,2.40
2023-01-29T16:28:45.422Z,2.37
2023-01-29T16:31:13.852Z,2.34
2023-01-29T16:33:42.329Z,2.35
2023-01-29T16:36:35.206Z,2.34
2023-01-29T16:39:05.258Z,2.34
2023-01-29T16:41:33.333Z,2.36
2023-01-29T16:44:04.239Z,2.35
2023-01-29T16:46:47.139Z,2.33
2023-01-29T16:49:26.134Z,2.35
2023-01-29T16:51:53.626Z,2.34
2023-01-29T16:54:27.529Z,2.32
2023-01-29T16:56:59.133Z,2.32
2023-01-29T16:59:39.887Z,2.34
2023-01-29T17:02:18.254Z,2.32
2023-01-29T17:04:45.819Z,2.32
2023-01-29T17:07:16.452Z,2.35
2023-01-29T17:09:42.950Z,2.34
2023-01-29T17:12:16.740Z,2.34
2023-01-29T17:14:51.893Z,2.32
2023-01-29T17:17:18.891Z,2.31
2023-01-29T17:19:45.317Z,2.29
2023-01-29T17:22:15.100Z,2.32
2023-01-29T17:24:41.991Z,2.30
2023-01-29T17:27:16.935Z,2.32
2023-01-29T17:29:43.402Z,2.32
2023-01-29T17:32:10.094Z,2.28
2023-01-29T17:34:37.348Z,2.31
2023-01-29T17:37:03.803Z,2.30
2023-01-29T17:39:30.307Z,2.31
2023-01-29T17:41:57.930Z,2.28
2023-01-29T17:44:26.181Z,2.27
2023-01-29T17:46:52.656Z,2.26
2023-01-29T17:49:23.968Z,2.28
2023-01-29T17:51:51.107Z,2.25
2023-01-29T17:54:17.566Z,2.27
2023-01-29T17:56:43.960Z,2.29
2023-01-29T17:59:17.650Z,2.24
2023-01-29T18:01:45.016Z,2.25
2023-01-29T18:04:11.964Z,2.25
2023-01-29T18:06:39.470Z,2.26
2023-01-29T18:09:05.906Z,2.26
2023-01-29T18:11:32.449Z,2.30
2023-01-29T18:13:58.885Z,2.29
2023-01-29T18:16:31.208Z,2.31
2023-01-29T18:18:57.710Z,2.31
2023-01-29T18:21:24.268Z,2.30
2023-01-29T18:23:50.688Z,2.30
2023-01-29T18:26:17.674Z,2.31
2023-01-29T18:28:44.214Z,2.30
2023-01-29T18:31:13.022Z,2.28
2023-01-29T18:33:40.301Z,2.30
2023-01-29T18:36:07.109Z,2.30
2023-01-29T18:38:33.499Z,2.32
2023-01-29T18:41:03.906Z,2.29
2023-01-29T18:43:30.340Z,2.33
2023-01-29T18:45:59.983Z,2.31
2023-01-29T18:48:26.605Z,2.30
2023-01-29T18:50:53.072Z,2.33
2023-01-29T18:53:19.541Z,2.33
2023-01-29T18:55:53.643Z,2.33
2023-01-29T18:58:25.910Z,2.30
2023-01-29T19:00:56.075Z,2.30
2023-01-29T19:03:22.526Z,2.31
2023-01-29T19:05:48.961Z,2.35
2023-01-29T19:08:15.341Z,2.34
2023-01-29T19:10:41.834Z,2.30
2023-01-29T19:13:08.351Z,2.34
2023-01-29T19:15:35.077Z,2.35
2023-01-29T19:18:01.827Z,2.33
2023-01-29T19:20:28.255Z,2.31
2023-01-29T19:22:54.741Z,2.32
2023-01-29T19:25:21.483Z,2.35
2023-01-29T19:27:48.002Z,2.31
2023-01-29T19:30:14.702Z,2.34
2023-01-29T19:32:41.354Z,2.37
2023-01-29T19:35:07.880Z,2.38
2023-01-29T19:37:34.419Z,2.32
2023-01-29T19:40:00.939Z,2.35
2023-01-29T19:42:27.832Z,2.32
2023-01-29T19:44:54.220Z,2.29
2023-01-29T19:47:20.779Z,2.28
2023-01-29T19:49:47.210Z,2.28
2023-01-29T19:52:49.464Z,2.30
2023-01-29T19:55:17.895Z,2.32
2023-01-29T19:57:44.667Z,2.38
2023-01-29T20:00:12.144Z,2.41
2023-01-29T20:02:38.580Z,2.42
2023-01-29T20:05:05.518Z,2.41
2023-01-29T20:07:31.882Z,2.38
2023-01-29T20:09:58.349Z,2.38
2023-01-29T20:12:26.961Z,2.40
2023-01-29T20:14:53.385Z,2.38
2023-01-29T20:17:19.788Z,2.34
2023-01-29T20:19:46.745Z,2.38
2023-01-29T20:22:13.667Z,2.35
2023-01-29T20:24:42.361Z,2.39
2023-01-29T20:27:11.791Z,2.39
2023-01-29T20:29:38.496Z,2.38
2023-01-29T20:32:05.348Z,2.40
2023-01-29T20:34:31.913Z,2.40
2023-01-29T20:36:58.328Z,2.41
2023-01-29T20:39:24.838Z,2.41
2023-01-29T20:41:51.293Z,2.42
2023-01-29T20:44:17.685Z,2.40
2023-01-29T20:46:44.097Z,2.41
2023-01-29T20:49:11.845Z,2.41
2023-01-29T20:51:38.338Z,2.42
2023-01-29T20:54:04.777Z,2.44
2023-01-29T20:56:35.928Z,2.41
2023-01-29T20:59:03.895Z,2.45
2023-01-29T21:01:30.313Z,2.47
2023-01-29T21:03:56.763Z,2.44
2023-01-29T21:06:23.183Z,2.46
2023-01-29T21:08:49.586Z,2.47
2023-01-29T21:11:16.029Z,2.39
2023-01-29T21:13:43.936Z,2.48
2023-01-29T21:16:11.296Z,2.48
2023-01-29T21:18:37.811Z,2.46
2023-01-29T21:21:04.277Z,2.43
2023-01-29T21:23:30.679Z,2.45
2023-01-29T21:26:01.020Z,2.47
2023-01-29T21:28:27.444Z,2.51
2023-01-29T21:31:02.198Z,2.46
2023-01-29T21:33:28.613Z,2.50
2023-01-29T21:35:58.558Z,2.44
2023-01-29T21:38:25.101Z,2.54
2023-01-29T21:40:51.511Z,2.55
2023-01-29T21:43:17.996Z,2.49
2023-01-29T21:45:44.422Z,2.54
2023-01-29T21:48:11.313Z,2.51
2023-01-29T21:50:38.289Z,2.59
2023-01-29T21:53:04.771Z,2.54
2023-01-29T21:55:32.374Z,2.59
2023-01-29T21:58:00.149Z,2.56
2023-01-29T22:00:26.534Z,2.62
2023-01-29T22:02:53.382Z,2.59
2023-01-29T22:05:20.491Z,2.57
2023-01-29T22:07:47.797Z,2.64
2023-01-29T22:10:15.478Z,2.64
2023-01-29T22:12:42.335Z,2.64
2023-01-29T22:15:09.280Z,2.60
2023-01-29T22:17:35.710Z,2.65
2023-01-29T22:20:02.245Z,2.65
2023-01-29T22:22:28.701Z,2.66
2023-01-29T22:24:58.247Z,2.65
2023-01-29T22:27:24.823Z,2.66
2023-01-29T22:29:51.414Z,2.68
2023-01-29T22:32:17.899Z,2.68
2023-01-29T22:34:44.394Z,2.72
2023-01-29T22:37:10.912Z,2.70
2023-01-29T22:39:37.331Z,2.70
2023-01-29T22:42:03.791Z,2.72
2023-01-29T22:44:30.382Z,2.71
2023-01-29T22:46:56.818Z,2.73
2023-01-29T22:49:25.071Z,2.72
2023-01-29T22:52:09.854Z,2.71
2023-01-29T22:54:39.935Z,2.73
2023-01-29T22:57:06.762Z,2.76
2023-01-29T22:59:33.642Z,2.71
2023-01-29T23:02:00.182Z,2.72
2023-01-29T23:04:26.734Z,2.69
2023-01-29T23:06:53.158Z,2.70
2023-01-29T23:09:19.613Z,2.72
2023-01-29T23:11:46.081Z,2.74
2023-01-29T23:14:12.472Z,2.79
2023-01-29T23:16:38.871Z,2.77
2023-01-29T23:19:05.417Z,2.76
2023-01-29T23:21:31.806Z,2.78
2023-01-29T23:23:59.235Z,2.80
2023-01-29T23:26:44.662Z,2.80
2023-01-29T23:29:11.139Z,2.81
2023-01-29T23:31:37.724Z,2.80
2023-01-29T23:34:04.540Z,2.81
2023-01-29T23:36:30.922Z,2.78
2023-01-29T23:38:57.278Z,2.79
2023-01-29T23:41:23.653Z,2.81
2023-01-29T23:43:50.130Z,2.82
2023-01-29T23:46:16.554Z,2.82
2023-01-29T23:48:42.991Z,2.83
2023-01-29T23:51:10.670Z,2.83
2023-01-29T23:53:37.080Z,2.85
2023-01-29T23:56:04.852Z,2.84
2023-01-29T23:58:32.238Z,2.86
